Atwood, Oklahoma
Current Conditions -  °F | °C
As of 11:35 PM on Sunday 21 Dec 2014 (Local Time) from KADH Reporting Station
Overcast Overcast  
Wind Chill: 41°   Ceiling: 500
Heat Index: 46°   Visibility: 7mi
Dew Point: 46°   Wind: 12mph
Humidity: 100%   Direction: 160°SSE
Pressure: 29.7"   Gusts: NA
Location:  34.96°N, 96.34°W
Report Text: KADH 220535Z AUTO 16010KT 7SM OVC005 08/08 A2970 RMK AO2
Loading
Personal Weather Stations






























Interactive Weather Map New forecast layout! Learn more

10-Day Weather Forecast

Advertisements
Track Severe Weather on mobile